Oglasa — ITMG — position and weather

sailwx.info

Track history (hours):
 
Tides and Currents Weather Stations Pressure Air Temp Water Temp Dewpoint Dewpoint Depression Visibility Wind Speed Wind Dir Waves Ship Positions

Oglasa

Last reported at 2015-May-05 16:08 UTC. Time now 2015-May-06 03:24 UTC.
Position N 42°49' E 010°20'.

Length 91 m; draft 3.6 m.

Type: Ship. MMSI: 247046800.

Date/timePositionNaut miles runAvg speedWind from/ knotsBaromVisibWave heightAir tempDewpointWater temp
2015-May-05 16:08N 42°49' E 010°20'1 1.1
2015-May-05 15:31N 42°49' E 010°20'6 1.9
2015-May-05 12:33N 42°53' E 010°26'6 6.2
2015-May-05 11:33N 42°49' E 010°19'6 2.9
2015-May-05 09:33N 42°53' E 010°25'3 2.2
2015-May-05 08:16N 42°51' E 010°22'4 0.2
2015-May-04 16:33N 42°53' E 010°26'6 6.0
2015-May-04 15:30N 42°49' E 010°20'6 2.0
2015-May-04 12:33N 42°53' E 010°25'6 6.0
2015-May-04 11:32N 42°49' E 010°19'1 0.2
2015-May-04 08:26N 42°49' E 010°20'12 1.2
2015-May-03 22:30N 42°56' E 010°33'0 0.0
2015-May-03 21:28N 42°56' E 010°33'0 0.0
2015-May-03 20:18N 42°56' E 010°33'0 0.0
2015-May-03 19:32N 42°56' E 010°33'0 0.0
2015-May-03 18:04N 42°56' E 010°33'510.4
2015-May-03 17:33N 42°53' E 010°27'7 6.9
2015-May-03 16:33N 42°49' E 010°19'6 3.1
2015-May-03 14:34N 42°53' E 010°26'6 6.1
2015-May-03 13:33N 42°49' E 010°19'6 2.9
2015-May-03 11:31N 42°53' E 010°25'4 3.6
2015-May-03 10:23N 42°50' E 010°21'2 0.0
2015-May-01 11:08N 42°49' E 010°20'0 0.7
2015-May-01 10:33N 42°49' E 010°19'5 1.6
2015-May-01 07:07N 42°53' E 010°24'1 0.1
2015-Apr-30 17:25N 42°52' E 010°23'2 0.1
2015-Apr-29 12:33N 42°53' E 010°25'6 5.5
2015-Apr-29 11:32N 42°49' E 010°20'6 2.9
2015-Apr-29 09:32N 42°53' E 010°25'5 3.9
2015-Apr-29 08:22N 42°49' E 010°21'  
2015-Apr-26 17:31N 42°49' E 010°19'2 1.1
2015-Apr-26 15:20N 42°50' E 010°22'0 0.3
2015-Apr-26 14:22N 42°50' E 010°22'3 1.8
2015-Apr-26 12:31N 42°53' E 010°25'2 1.7
2015-Apr-26 11:15N 42°51' E 010°23'0 0.0
2015-Apr-26 08:16N 42°51' E 010°23'3 0.2
2015-Apr-25 17:29N 42°49' E 010°20'  
Track history (hours):
 
Tides and Currents Weather Stations Pressure Air Temp Water Temp Dewpoint Dewpoint Depression Visibility Wind Speed Wind Dir Waves Ship Positions

Oglasa

Last reported at 2015-May-05 16:08 UTC. Time now 2015-May-06 03:24 UTC.
Position N 42°49' E 010°20'.

Length 91 m; draft 3.6 m.

Type: Ship. MMSI: 247046800.

Date/timePositionNaut miles runAvg speedWind from/ knotsBaromVisibWave heightAir tempDewpointWater temp
2015-May-05 16:08N 42°49' E 010°20'1 1.1
2015-May-05 15:31N 42°49' E 010°20'6 1.9
2015-May-05 12:33N 42°53' E 010°26'6 6.2
2015-May-05 11:33N 42°49' E 010°19'6 2.9
2015-May-05 09:33N 42°53' E 010°25'3 2.2
2015-May-05 08:16N 42°51' E 010°22'4 0.2
2015-May-04 16:33N 42°53' E 010°26'6 6.0
2015-May-04 15:30N 42°49' E 010°20'6 2.0
2015-May-04 12:33N 42°53' E 010°25'6 6.0
2015-May-04 11:32N 42°49' E 010°19'1 0.2
2015-May-04 08:26N 42°49' E 010°20'12 1.2
2015-May-03 22:30N 42°56' E 010°33'0 0.0
2015-May-03 21:28N 42°56' E 010°33'0 0.0
2015-May-03 20:18N 42°56' E 010°33'0 0.0
2015-May-03 19:32N 42°56' E 010°33'0 0.0
2015-May-03 18:04N 42°56' E 010°33'510.4
2015-May-03 17:33N 42°53' E 010°27'7 6.9
2015-May-03 16:33N 42°49' E 010°19'6 3.1
2015-May-03 14:34N 42°53' E 010°26'6 6.1
2015-May-03 13:33N 42°49' E 010°19'6 2.9
2015-May-03 11:31N 42°53' E 010°25'4 3.6
2015-May-03 10:23N 42°50' E 010°21'2 0.0
2015-May-01 11:08N 42°49' E 010°20'0 0.7
2015-May-01 10:33N 42°49' E 010°19'5 1.6
2015-May-01 07:07N 42°53' E 010°24'1 0.1
2015-Apr-30 17:25N 42°52' E 010°23'2 0.1
2015-Apr-29 12:33N 42°53' E 010°25'6 5.5
2015-Apr-29 11:32N 42°49' E 010°20'6 2.9
2015-Apr-29 09:32N 42°53' E 010°25'5 3.9
2015-Apr-29 08:22N 42°49' E 010°21'  
2015-Apr-26 17:31N 42°49' E 010°19'2 1.1
2015-Apr-26 15:20N 42°50' E 010°22'0 0.3
2015-Apr-26 14:22N 42°50' E 010°22'3 1.8
2015-Apr-26 12:31N 42°53' E 010°25'2 1.7
2015-Apr-26 11:15N 42°51' E 010°23'0 0.0
2015-Apr-26 08:16N 42°51' E 010°23'3 0.2
2015-Apr-25 17:29N 42°49' E 010°20'  

Dump ship's entire track history